Time;durP1;ratioP1;P1;durP2;ratioP2;P2;SDS_P1;SDS_P2;PMS_P1;PMS_P2;Temp;Humidity;BMP_temperature;BMP_pressure;BME280_temperature;BME280_humidity;BME280_pressure;Samples;Min_cycle;Max_cycle;Signal;HPM_P1;HPM_P2
2023/03/25 00:01:59;;;;;;;45.23;20.57;;;;;;;9.61;75.73;94552.28;5063326;28;20216;-79
2023/03/25 00:04:26;;;;;;;47.13;22.53;;;;;;;9.67;75.73;94571.69;5061606;28;20185;-79
2023/03/25 00:06:54;;;;;;;48.73;21.37;;;;;;;9.45;75.87;94543.09;5059871;28;20257;-79
2023/03/25 00:09:20;;;;;;;46.03;22.43;;;;;;;9.60;76.13;94570.91;5060588;28;20171;-79
2023/03/25 00:11:48;;;;;;;42.73;22.40;;;;;;;9.46;76.06;94549.97;5059104;28;20659;-79
2023/03/25 00:14:15;;;;;;;53.30;22.47;;;;;;;9.40;76.22;94540.31;5058785;28;20167;-79
2023/03/25 00:16:41;;;;;;;39.07;19.97;;;;;;;9.56;76.33;94564.47;5062622;28;20182;-79
2023/03/25 00:19:08;;;;;;;46.73;20.80;;;;;;;9.57;76.31;94564.25;5062023;28;20181;-79
2023/03/25 00:21:34;;;;;;;52.38;23.20;;;;;;;9.43;76.78;94560.09;5060876;28;20440;-79
2023/03/25 00:24:00;;;;;;;44.97;21.23;;;;;;;9.28;76.97;94541.19;5056124;28;20205;-79
2023/03/25 00:26:28;;;;;;;45.73;22.13;;;;;;;9.25;76.68;94529.28;5062737;28;20208;-79
2023/03/25 00:28:54;;;;;;;45.03;17.20;;;;;;;9.32;76.56;94537.94;5063003;28;20295;-79
2023/03/25 00:31:20;;;;;;;31.20;16.30;;;;;;;9.22;76.62;94521.03;5063026;28;20178;-79
2023/03/25 00:33:46;;;;;;;32.13;15.93;;;;;;;9.32;76.23;94542.38;5060555;28;20171;-79
2023/03/25 00:36:13;;;;;;;42.93;21.60;;;;;;;9.23;76.69;94530.50;5064094;28;20231;-79
2023/03/25 00:38:40;;;;;;;39.17;20.37;;;;;;;9.20;76.72;94538.78;5054569;28;20250;-79
2023/03/25 00:41:26;;;;;;;45.00;22.30;;;;;;;9.26;76.74;94544.00;5057940;28;20161;-79
2023/03/25 00:43:54;;;;;;;40.30;21.37;;;;;;;9.27;76.93;94539.56;5065595;28;20253;-78
2023/03/25 00:46:21;;;;;;;48.57;28.93;;;;;;;9.17;76.74;94528.72;5066623;28;20190;-79
2023/03/25 00:48:47;;;;;;;54.67;29.13;;;;;;;9.18;76.95;94541.63;5066674;28;20190;-79
2023/03/25 00:51:18;;;;;;;49.20;26.80;;;;;;;9.17;76.90;94539.25;5063369;28;20586;-79
2023/03/25 00:53:44;;;;;;;42.97;22.77;;;;;;;8.99;77.74;94516.28;5063354;28;20186;-79
2023/03/25 00:56:11;;;;;;;35.47;20.48;;;;;;;9.00;78.38;94523.94;5062920;28;20431;-79
2023/03/25 00:58:37;;;;;;;37.83;19.43;;;;;;;8.93;77.72;94515.28;5069324;28;20178;-79
2023/03/25 01:01:11;;;;;;;45.47;25.27;;;;;;;8.81;78.49;94503.84;5066223;28;20175;-79
2023/03/25 01:03:38;;;;;;;27.17;14.43;;;;;;;8.96;78.19;94522.75;5066109;28;20642;-78
2023/03/25 01:06:12;;;;;;;24.93;12.37;;;;;;;8.91;77.96;94519.13;5066026;28;20635;-79
2023/03/25 01:08:39;;;;;;;20.83;11.30;;;;;;;8.84;78.18;94513.09;5063077;28;20757;-79
2023/03/25 01:11:05;;;;;;;26.10;12.97;;;;;;;8.87;77.65;94513.50;5062968;28;20167;-79
2023/03/25 01:13:30;;;;;;;26.37;13.90;;;;;;;8.75;77.69;94494.16;5062776;28;20215;-79
2023/03/25 01:15:56;;;;;;;26.43;14.10;;;;;;;8.91;78.01;94519.94;5062848;28;20660;-79
2023/03/25 01:18:21;;;;;;;25.30;14.37;;;;;;;8.88;77.74;94512.50;5062810;28;20175;-79
2023/03/25 01:20:46;;;;;;;34.33;20.10;;;;;;;8.82;78.63;94512.53;5061580;28;20476;-79
2023/03/25 01:23:12;;;;;;;33.57;18.03;;;;;;;8.85;78.46;94507.66;5062767;28;20548;-79
2023/03/25 01:25:37;;;;;;;30.53;16.53;;;;;;;8.80;78.24;94489.13;5070909;28;20191;-79
2023/03/25 01:28:04;;;;;;;28.30;16.40;;;;;;;8.87;78.09;94495.13;5062627;28;20191;-79
2023/03/25 01:30:29;;;;;;;35.07;17.93;;;;;;;8.86;78.22;94492.72;5062622;28;20178;-79
2023/03/25 01:33:07;;;;;;;34.50;18.90;;;;;;;8.79;78.23;94486.69;5065821;28;20166;-79
2023/03/25 01:35:32;;;;;;;34.90;19.13;;;;;;;8.75;79.00;94493.38;5065976;28;20179;-79
2023/03/25 01:37:58;;;;;;;31.90;17.47;;;;;;;8.73;79.25;94487.53;5061769;28;20174;-79
2023/03/25 01:40:23;;;;;;;33.37;16.43;;;;;;;8.72;79.11;94483.31;5062588;28;20274;-79
2023/03/25 01:42:49;;;;;;;33.60;17.47;;;;;;;8.71;79.00;94479.88;5064947;28;20182;-79
2023/03/25 01:45:27;;;;;;;27.83;15.37;;;;;;;8.60;78.93;94470.03;5060059;28;20175;-79
2023/03/25 01:48:05;;;;;;;37.40;20.13;;;;;;;8.51;79.30;94461.56;5064709;28;20713;-79
2023/03/25 01:50:33;;;;;;;38.47;20.53;;;;;;;8.65;78.95;94484.13;5065538;28;20251;-79
2023/03/25 01:53:02;;;;;;;40.07;19.03;;;;;;;8.63;79.15;94480.91;5056951;28;20170;-79
2023/03/25 01:55:32;;;;;;;33.50;16.27;;;;;;;8.62;78.56;94487.16;5065433;28;20206;-79
2023/03/25 01:57:59;;;;;;;35.00;15.87;;;;;;;8.57;78.86;94481.72;5063048;28;20179;-79
2023/03/25 02:00:25;;;;;;;35.87;15.93;;;;;;;8.42;78.73;94469.88;5059052;28;20683;-79
2023/03/25 02:02:53;;;;;;;35.83;16.57;;;;;;;8.53;79.31;94491.03;5064267;28;20725;-79
2023/03/25 02:05:28;;;;;;;35.93;16.23;;;;;;;8.38;79.37;94461.63;5061756;28;20178;-79
2023/03/25 02:07:56;;;;;;;35.13;16.13;;;;;;;8.44;79.38;94473.91;5062738;28;20190;-79
2023/03/25 02:10:22;;;;;;;33.10;14.67;;;;;;;8.48;79.40;94471.66;5065051;28;20240;-79
2023/03/25 02:12:47;;;;;;;32.13;15.37;;;;;;;8.52;79.40;94478.13;5065108;28;20178;-78
2023/03/25 02:15:17;;;;;;;29.57;16.10;;;;;;;8.36;79.11;94461.03;5062629;28;20170;-79
2023/03/25 02:17:42;;;;;;;35.47;16.30;;;;;;;8.46;79.50;94471.91;5062045;28;20194;-79
2023/03/25 02:20:42;;;;;;;28.80;15.17;;;;;;;8.41;79.84;94476.94;5062926;28;20191;-79
2023/03/25 02:23:56;;;;;;;32.00;15.13;;;;;;;8.40;79.64;94472.69;5056396;28;20175;-79
2023/03/25 02:26:32;;;;;;;30.50;15.57;;;;;;;8.37;79.47;94462.66;5052813;28;20178;-79
2023/03/25 02:29:04;;;;;;;34.93;14.53;;;;;;;8.33;79.47;94464.06;5061494;28;20167;-79
2023/03/25 02:31:41;;;;;;;33.47;14.77;;;;;;;8.29;79.63;94458.41;5061877;28;20199;-79
2023/03/25 02:34:28;;;;;;;26.47;13.70;;;;;;;8.11;79.72;94442.53;5061607;28;20254;-79
2023/03/25 02:37:26;;;;;;;26.83;13.73;;;;;;;8.24;80.04;94462.63;5066873;28;20162;-77
2023/03/25 02:40:17;;;;;;;27.20;15.03;;;;;;;8.21;80.15;94463.06;5072145;28;20181;-76
2023/03/25 02:43:00;;;;;;;24.57;12.43;;;;;;;8.18;80.00;94453.78;5064302;28;20235;-76
2023/03/25 02:45:32;;;;;;;25.13;12.93;;;;;;;8.15;79.90;94459.44;5072101;28;20235;-77
2023/03/25 02:48:03;;;;;;;22.43;11.83;;;;;;;8.10;80.17;94447.97;5066962;28;20205;-76
2023/03/25 02:50:35;;;;;;;26.88;12.13;;;;;;;8.09;80.47;94449.78;5052361;28;20473;-76
2023/03/25 02:53:07;;;;;;;22.83;12.60;;;;;;;7.92;80.74;94428.44;5050990;28;20175;-76
2023/03/25 02:55:34;;;;;;;22.87;13.30;;;;;;;8.09;80.23;94460.25;5060357;28;20171;-76
2023/03/25 02:58:05;;;;;;;26.17;12.60;;;;;;;7.97;80.35;94441.72;5071930;28;20713;-76
2023/03/25 03:00:33;;;;;;;25.10;12.80;;;;;;;7.95;80.70;94433.28;5063654;28;20271;-76
2023/03/25 03:03:01;;;;;;;23.07;12.80;;;;;;;8.02;80.95;94446.38;5062941;28;20226;-76
2023/03/25 03:05:30;;;;;;;23.83;12.27;;;;;;;8.04;80.95;94444.34;5056125;28;20224;-76
2023/03/25 03:08:23;;;;;;;22.80;11.53;;;;;;;8.02;80.81;94438.50;5060087;28;20259;-76
2023/03/25 03:11:19;;;;;;;23.90;12.43;;;;;;;8.02;80.88;94441.13;5070242;28;20182;-76
2023/03/25 03:14:03;;;;;;;25.27;12.80;;;;;;;7.99;80.79;94443.34;5051953;28;20189;-76
2023/03/25 03:16:29;;;;;;;28.47;14.67;;;;;;;7.99;81.04;94446.78;5071609;28;20167;-76
2023/03/25 03:19:33;;;;;;;22.40;12.30;;;;;;;7.94;80.67;94447.41;5063072;28;20709;-76
2023/03/25 03:22:35;;;;;;;25.10;14.03;;;;;;;7.93;80.65;94451.03;5071280;28;20174;-76
2023/03/25 03:25:22;;;;;;;23.70;13.50;;;;;;;7.90;81.35;94455.84;5062823;28;20178;-76
2023/03/25 03:28:18;;;;;;;30.33;13.33;;;;;;;7.88;81.02;94453.44;5071341;28;20208;-76
2023/03/25 03:31:09;;;;;;;32.25;16.08;;;;;;;7.83;81.72;94445.41;5057359;28;20519;-76
2023/03/25 03:33:52;;;;;;;28.07;14.43;;;;;;;7.76;81.40;94438.56;5059842;28;20555;-76
2023/03/25 03:36:26;;;;;;;29.67;15.03;;;;;;;7.63;80.93;94418.41;5059534;28;20255;-76
2023/03/25 03:39:06;;;;;;;28.50;15.23;;;;;;;7.84;81.22;94451.44;5059162;28;20170;-76
2023/03/25 03:41:36;;;;;;;28.80;14.60;;;;;;;7.82;80.92;94456.88;5059321;28;20663;-76
2023/03/25 03:44:08;;;;;;;27.47;14.87;;;;;;;7.83;80.81;94461.13;5067155;28;20394;-76
2023/03/25 03:46:53;;;;;;;30.97;17.07;;;;;;;7.69;80.55;94430.72;5062550;28;20651;-76
2023/03/25 03:49:22;;;;;;;26.97;14.90;;;;;;;7.72;81.31;94440.75;5061404;28;20179;-76
2023/03/25 03:51:58;;;;;;;30.90;16.80;;;;;;;7.80;81.02;94458.09;5051098;28;20174;-76
2023/03/25 03:54:30;;;;;;;35.40;15.60;;;;;;;7.78;80.74;94454.88;5059283;28;20640;-76
2023/03/25 03:57:07;;;;;;;28.10;15.30;;;;;;;7.78;81.39;94454.88;5051313;28;20531;-75
2023/03/25 03:59:41;;;;;;;30.03;14.57;;;;;;;7.72;81.44;94461.72;5067350;28;20304;-76
2023/03/25 04:02:15;;;;;;;33.03;15.43;;;;;;;7.69;81.56;94462.16;5050995;28;20174;-76
2023/03/25 04:04:41;;;;;;;31.97;16.63;;;;;;;7.68;81.49;94457.91;5059414;28;20495;-76
2023/03/25 04:07:18;;;;;;;27.80;15.70;;;;;;;7.65;81.57;94460.91;5056864;28;20212;-75
2023/03/25 04:10:02;;;;;;;26.93;14.37;;;;;;;7.44;81.95;94433.13;5070810;28;20186;-76
2023/03/25 04:12:32;;;;;;;31.93;14.17;;;;;;;7.62;82.08;94456.06;5070990;28;20181;-76
2023/03/25 04:15:00;;;;;;;28.83;14.20;;;;;;;7.51;81.96;94439.19;5068051;28;20159;-76
2023/03/25 04:17:28;;;;;;;24.17;12.93;;;;;;;7.53;81.65;94445.00;5070653;28;20230;-76
2023/03/25 04:19:57;;;;;;;25.03;12.93;;;;;;;7.58;82.23;94454.88;5055281;28;20186;-75
2023/03/25 04:22:23;;;;;;;25.87;14.90;;;;;;;7.60;81.89;94450.25;5061597;28;20552;-76
2023/03/25 04:24:50;;;;;;;33.90;16.17;;;;;;;7.51;82.17;94439.19;5056301;28;20425;-76
2023/03/25 04:27:17;;;;;;;29.33;15.47;;;;;;;7.63;81.41;94457.69;5065347;28;20185;-76
2023/03/25 04:29:43;;;;;;;27.13;14.40;;;;;;;7.54;81.65;94435.34;5066301;28;20179;-76
2023/03/25 04:32:11;;;;;;;26.70;13.37;;;;;;;7.67;81.20;94452.88;5069274;28;20190;-75
2023/03/25 04:34:36;;;;;;;29.00;14.20;;;;;;;7.69;81.26;94456.91;5073273;28;20651;-75
2023/03/25 04:37:02;;;;;;;28.37;14.83;;;;;;;7.70;81.52;94457.69;5074580;28;20213;-75
2023/03/25 04:39:28;;;;;;;29.20;13.30;;;;;;;7.66;81.59;94454.69;5066362;28;20257;-76
2023/03/25 04:41:55;;;;;;;30.77;15.87;;;;;;;7.66;81.62;94452.06;5065764;28;20190;-76
2023/03/25 04:44:24;;;;;;;32.60;16.60;;;;;;;7.93;81.54;94458.88;5054557;28;20169;-76
2023/03/25 04:46:50;;;;;;;27.90;15.47;;;;;;;8.19;80.88;94446.72;5070362;28;20170;-76
2023/03/25 04:49:20;;;;;;;42.97;18.80;;;;;;;8.81;78.41;94456.63;5066179;28;20201;-76
2023/03/25 04:51:50;;;;;;;45.93;21.53;;;;;;;9.01;76.66;94419.75;5071705;28;20534;-76
2023/03/25 04:54:17;;;;;;;45.70;20.80;;;;;;;9.65;74.64;94468.59;5064806;28;20258;-76
2023/03/25 04:56:42;;;;;;;30.63;17.10;;;;;;;9.95;73.37;94466.91;5074406;28;20704;-76
2023/03/25 04:59:09;;;;;;;32.23;15.70;;;;;;;9.98;72.85;94466.47;5074114;28;20186;-76
2023/03/25 05:01:40;;;;;;;25.87;14.00;;;;;;;10.37;72.01;94464.53;5066007;28;20200;-76
2023/03/25 05:04:11;;;;;;;19.43;12.03;;;;;;;11.01;70.36;94457.88;5066320;28;20677;-76
2023/03/25 05:06:39;;;;;;;20.70;11.63;;;;;;;11.58;65.87;94475.72;5062702;28;20174;-76
2023/03/25 05:09:06;;;;;;;21.90;10.90;;;;;;;12.53;63.85;94488.75;5056098;28;20652;-76
2023/03/25 05:11:33;;;;;;;22.07;11.97;;;;;;;13.57;59.90;94484.19;5062293;28;20201;-76
2023/03/25 05:13:59;;;;;;;22.10;11.97;;;;;;;14.65;57.09;94483.75;5059795;28;20212;-76
2023/03/25 05:16:25;;;;;;;25.63;13.03;;;;;;;15.96;53.23;94486.25;5074052;28;20182;-76
2023/03/25 05:18:51;;;;;;;19.33;12.43;;;;;;;17.22;48.70;94483.56;5061237;28;20164;-76
2023/03/25 05:21:16;;;;;;;24.17;13.82;;;;;;;18.44;45.04;94465.09;5054087;28;20566;-76
2023/03/25 05:23:42;;;;;;;20.08;12.90;;;;;;;19.59;42.38;94483.69;5064707;28;20193;-77
2023/03/25 05:26:08;;;;;;;28.02;13.98;;;;;;;20.44;40.97;94483.38;5059132;28;20186;-77
2023/03/25 05:28:34;;;;;;;24.50;13.05;;;;;;;20.92;38.65;94478.91;5061799;28;20202;-77
2023/03/25 05:31:00;;;;;;;21.88;12.50;;;;;;;21.65;37.51;94481.22;5066622;28;20293;-77
2023/03/25 05:33:26;;;;;;;23.60;12.15;;;;;;;22.15;35.29;94483.19;5066223;28;20253;-76
2023/03/25 05:35:51;;;;;;;23.35;12.50;;;;;;;22.78;35.43;94471.97;5071036;28;20263;-78
2023/03/25 05:38:17;;;;;;;20.00;11.85;;;;;;;23.02;33.43;94460.25;5068053;28;20251;-77
2023/03/25 05:40:47;;;;;;;18.27;10.93;;;;;;;23.59;33.21;94491.91;5064966;28;20182;-78
2023/03/25 05:43:14;;;;;;;21.05;11.00;;;;;;;24.07;31.96;94480.63;5072832;28;20186;-78
2023/03/25 05:45:41;;;;;;;24.40;12.13;;;;;;;24.48;31.11;94482.34;5066661;28;20178;-78
2023/03/25 05:48:07;;;;;;;19.05;10.65;;;;;;;24.59;30.80;94486.41;5065714;28;20202;-79
2023/03/25 05:50:33;;;;;;;18.70;10.15;;;;;;;24.91;30.28;94478.03;5059228;28;20181;-79
2023/03/25 05:52:58;;;;;;;18.73;9.68;;;;;;;25.74;29.04;94489.78;5073906;28;20178;-80
2023/03/25 05:55:25;;;;;;;18.92;10.27;;;;;;;26.55;28.44;94487.25;5065613;28;20525;-80
2023/03/25 05:57:50;;;;;;;17.98;9.73;;;;;;;27.39;27.53;94485.78;5074084;28;20181;-78
2023/03/25 06:00:20;;;;;;;20.63;9.48;;;;;;;27.51;27.12;94491.28;5070678;28;20222;-79
2023/03/25 06:02:47;;;;;;;20.10;9.90;;;;;;;27.78;26.25;94490.03;5062527;28;20199;-79
2023/03/25 06:05:15;;;;;;;15.25;8.65;;;;;;;28.19;25.66;94483.91;5064478;28;20186;-79
2023/03/25 06:07:46;;;;;;;18.30;9.48;;;;;;;28.28;26.01;94470.28;5073489;28;20290;-78
2023/03/25 06:10:15;;;;;;;16.80;7.88;;;;;;;28.35;25.29;94478.69;5057416;28;20167;-79
2023/03/25 06:12:42;;;;;;;14.63;6.30;;;;;;;28.34;24.50;94479.78;5054030;28;20715;-79
2023/03/25 06:15:10;;;;;;;9.90;6.55;;;;;;;28.51;24.65;94472.31;5053666;28;20166;-79
2023/03/25 06:17:38;;;;;;;11.10;7.68;;;;;;;28.40;24.82;94448.66;5061897;28;20175;-79
2023/03/25 06:20:10;;;;;;;10.30;6.35;;;;;;;29.26;23.86;94470.22;5064369;28;20250;-79
2023/03/25 06:22:43;;;;;;;10.07;6.82;;;;;;;29.78;23.70;94474.22;5063080;28;20162;-79
2023/03/25 06:25:18;;;;;;;14.20;6.95;;;;;;;29.95;23.38;94482.91;5061179;28;20181;-79
2023/03/25 06:27:45;;;;;;;13.93;8.27;;;;;;;30.47;22.67;94481.31;5059651;28;20561;-79
2023/03/25 06:30:18;;;;;;;14.98;10.63;;;;;;;30.76;22.75;94481.00;5066003;28;20632;-80
2023/03/25 06:32:43;;;;;;;17.58;8.90;;;;;;;31.27;22.47;94468.34;5036170;28;20642;-80
2023/03/25 06:35:10;;;;;;;16.30;8.18;;;;;;;31.62;21.18;94473.09;5062017;28;20217;-80
2023/03/25 06:37:37;;;;;;;16.17;7.70;;;;;;;31.27;21.34;94465.63;5063025;28;20179;-80
2023/03/25 06:40:05;;;;;;;18.92;7.68;;;;;;;31.55;20.73;94476.44;5059646;28;20242;-80
2023/03/25 06:42:31;;;;;;;14.52;7.63;;;;;;;31.39;20.74;94486.53;5070050;28;20182;-81
2023/03/25 06:44:57;;;;;;;16.52;7.80;;;;;;;31.00;21.13;94469.19;5061859;28;20179;-81
2023/03/25 06:47:22;;;;;;;15.68;8.57;;;;;;;30.31;22.01;94475.81;5061535;28;20560;-83
2023/03/25 06:49:48;;;;;;;9.55;7.75;;;;;;;29.86;23.11;94481.44;5071376;28;20162;-79
2023/03/25 06:52:14;;;;;;;15.95;8.48;;;;;;;29.22;24.15;94488.31;5067182;28;20183;-80
2023/03/25 06:54:40;;;;;;;10.80;8.82;;;;;;;28.77;24.66;94463.16;5069300;28;20308;-78
2023/03/25 06:57:05;;;;;;;12.95;9.10;;;;;;;28.09;25.31;94468.81;5072107;28;20261;-79
2023/03/25 06:59:31;;;;;;;17.02;8.50;;;;;;;27.53;27.09;94478.22;5067213;28;20232;-79
2023/03/25 07:01:57;;;;;;;17.23;9.70;;;;;;;27.27;27.79;94478.34;5055849;28;20697;-79
2023/03/25 07:04:23;;;;;;;25.95;10.05;;;;;;;27.17;27.08;94484.09;5059005;28;20198;-78
2023/03/25 07:06:48;;;;;;;18.40;10.57;;;;;;;26.87;26.88;94477.03;5052387;28;20717;-77
2023/03/25 07:09:14;;;;;;;21.15;10.65;;;;;;;25.83;27.29;94455.53;5064012;28;20564;-77
2023/03/25 07:11:40;;;;;;;19.17;10.30;;;;;;;25.85;29.74;94480.28;5064039;28;20183;-79
2023/03/25 07:14:05;;;;;;;20.98;11.82;;;;;;;25.59;29.28;94474.06;5054873;28;20304;-79
2023/03/25 07:16:31;;;;;;;31.20;11.40;;;;;;;24.61;30.23;94466.16;5061414;28;20185;-78
2023/03/25 07:18:57;;;;;;;19.67;11.77;;;;;;;23.91;31.48;94460.56;5060546;28;20167;-79
2023/03/25 07:21:23;;;;;;;23.27;12.25;;;;;;;23.87;32.98;94464.97;5052294;28;20182;-78
2023/03/25 07:23:49;;;;;;;22.92;11.88;;;;;;;23.91;32.84;94464.03;5052439;28;20185;-79
2023/03/25 07:26:15;;;;;;;20.40;11.90;;;;;;;23.82;32.24;94476.63;5051972;28;20266;-78
2023/03/25 07:28:41;;;;;;;30.83;12.73;;;;;;;23.75;33.70;94470.88;5052074;28;20279;-78
2023/03/25 07:31:08;;;;;;;22.17;11.05;;;;;;;23.84;32.53;94473.63;5069793;28;20233;-78
2023/03/25 07:33:34;;;;;;;20.92;11.48;;;;;;;23.89;33.72;94462.75;5066885;28;20177;-77
2023/03/25 07:36:00;;;;;;;18.17;10.77;;;;;;;23.96;33.97;94463.91;5067009;28;20260;-77
2023/03/25 07:38:25;;;;;;;26.73;12.40;;;;;;;23.61;33.59;94460.13;5051009;28;20237;-77
2023/03/25 07:40:50;;;;;;;26.38;14.77;;;;;;;23.36;33.08;94438.34;5051181;28;20175;-77
2023/03/25 07:43:17;;;;;;;23.38;13.13;;;;;;;23.35;34.53;94456.38;5050725;28;20601;-76
2023/03/25 07:45:43;;;;;;;25.30;13.48;;;;;;;23.16;34.04;94451.13;5051183;28;20171;-77
2023/03/25 07:48:13;;;;;;;20.88;11.20;;;;;;;23.27;35.16;94449.78;5051468;28;20253;-77
2023/03/25 07:50:39;;;;;;;31.00;12.55;;;;;;;23.58;33.57;94447.31;5050948;28;20644;-77
2023/03/25 07:53:06;;;;;;;28.15;12.98;;;;;;;23.13;33.79;94448.22;5051591;28;20224;-77
2023/03/25 07:55:31;;;;;;;28.55;12.43;;;;;;;22.37;34.62;94445.03;5060083;28;20614;-78
2023/03/25 07:57:59;;;;;;;25.58;14.10;;;;;;;22.29;36.05;94437.66;5051123;28;20180;-77
2023/03/25 08:00:25;;;;;;;24.10;12.57;;;;;;;22.33;37.28;94430.59;5050762;28;20227;-77
2023/03/25 08:02:51;;;;;;;23.08;12.68;;;;;;;22.99;36.37;94432.13;5050813;28;20186;-78
2023/03/25 08:05:20;;;;;;;19.15;12.13;;;;;;;23.52;33.80;94427.03;5051445;28;20167;-78
2023/03/25 08:07:47;;;;;;;28.63;13.18;;;;;;;22.81;34.95;94427.63;5049607;28;20624;-78
2023/03/25 08:10:14;;;;;;;31.27;12.70;;;;;;;22.70;36.38;94415.47;5051454;28;20240;-78
2023/03/25 08:12:43;;;;;;;19.90;12.20;;;;;;;22.85;34.52;94405.25;5051952;28;20643;-78
2023/03/25 08:15:10;;;;;;;21.52;11.93;;;;;;;23.51;35.75;94416.56;5051808;28;20580;-78
2023/03/25 08:17:36;;;;;;;23.92;12.77;;;;;;;23.97;34.49;94419.00;5051983;28;20167;-79
2023/03/25 08:20:03;;;;;;;35.25;12.20;;;;;;;24.06;33.12;94398.34;5051579;28;20182;-80
2023/03/25 08:22:29;;;;;;;20.20;12.10;;;;;;;24.16;32.86;94408.84;5052312;28;20178;-81
2023/03/25 08:24:54;;;;;;;21.58;12.35;;;;;;;24.00;32.68;94416.50;5052798;28;20615;-79
2023/03/25 08:27:20;;;;;;;20.05;11.93;;;;;;;23.81;32.99;94415.88;5049959;28;20210;-79
2023/03/25 08:29:53;;;;;;;24.92;13.40;;;;;;;23.28;33.59;94394.19;5050100;28;20178;-79
2023/03/25 08:32:19;;;;;;;28.92;13.35;;;;;;;23.16;34.27;94408.16;5049958;28;20253;-79
2023/03/25 08:34:45;;;;;;;21.80;13.02;;;;;;;22.94;35.47;94414.22;5049191;28;20565;-79
2023/03/25 08:37:10;;;;;;;24.02;13.95;;;;;;;22.94;36.12;94408.03;5048493;28;20167;-79
2023/03/25 08:39:38;;;;;;;21.42;13.88;;;;;;;23.12;35.26;94395.59;5048995;28;20167;-78
2023/03/25 08:42:09;;;;;;;23.08;12.43;;;;;;;22.91;35.32;94377.25;5056502;28;20194;-78
2023/03/25 08:44:35;;;;;;;24.20;13.68;;;;;;;23.20;35.92;94389.53;5062258;28;20171;-80
2023/03/25 08:47:00;;;;;;;24.02;11.68;;;;;;;23.19;35.61;94395.97;5054848;28;20181;-80
2023/03/25 08:49:26;;;;;;;25.52;11.90;;;;;;;23.18;34.59;94354.91;5070277;28;20705;-80
2023/03/25 08:51:52;;;;;;;19.67;12.52;;;;;;;23.38;34.45;94393.16;5062948;28;20187;-82
2023/03/25 08:54:17;;;;;;;25.25;12.82;;;;;;;23.23;33.61;94391.59;5051690;28;20263;-77
2023/03/25 08:56:43;;;;;;;23.42;12.18;;;;;;;22.98;34.10;94394.81;5052064;28;20181;-81
2023/03/25 08:59:11;;;;;;;21.75;12.80;;;;;;;22.71;35.17;94385.66;5051466;28;20160;-80
2023/03/25 09:01:37;;;;;;;22.13;12.15;;;;;;;21.96;35.41;94375.19;5057151;28;20534;-80
2023/03/25 09:04:02;;;;;;;25.25;11.88;;;;;;;22.00;36.55;94381.56;5072309;28;20174;-80
2023/03/25 09:06:28;;;;;;;18.02;11.35;;;;;;;22.30;37.42;94387.50;5062738;28;20524;-79
2023/03/25 09:08:54;;;;;;;19.38;11.20;;;;;;;22.88;35.14;94388.56;5059777;28;20183;-80
2023/03/25 09:11:20;;;;;;;20.15;11.45;;;;;;;23.02;33.83;94377.81;5067360;28;20165;-79
2023/03/25 09:13:46;;;;;;;19.35;11.13;;;;;;;22.47;35.26;94315.28;5065689;28;20179;-80
2023/03/25 09:16:11;;;;;;;17.70;10.70;;;;;;;22.91;33.80;94368.38;5062235;28;20174;-79
2023/03/25 09:18:36;;;;;;;22.00;10.70;;;;;;;22.95;35.56;94356.72;5055543;28;20194;-81
2023/03/25 09:21:03;;;;;;;19.77;10.40;;;;;;;23.14;35.21;94361.19;5071626;28;20166;-77
2023/03/25 09:23:28;;;;;;;19.58;9.60;;;;;;;23.24;35.32;94350.22;5066931;28;20174;-77
2023/03/25 09:26:00;;;;;;;21.80;8.65;;;;;;;23.62;34.13;94364.94;5070758;28;20181;-77
2023/03/25 09:28:25;;;;;;;17.35;9.02;;;;;;;23.47;34.40;94364.47;5071109;28;20686;-77
2023/03/25 09:30:50;;;;;;;22.15;8.48;;;;;;;23.05;33.88;94354.94;5069095;28;20174;-77
2023/03/25 09:33:16;;;;;;;22.08;9.50;;;;;;;22.47;34.83;94355.53;5054036;28;20167;-77
2023/03/25 09:35:41;;;;;;;17.35;9.15;;;;;;;22.23;35.67;94334.22;5053758;28;20163;-78
2023/03/25 09:38:07;;;;;;;14.73;7.40;;;;;;;22.51;36.52;94351.16;5060246;28;20167;-78
2023/03/25 09:40:33;;;;;;;13.02;6.90;;;;;;;23.07;35.70;94355.44;5068715;28;20627;-79
2023/03/25 09:43:23;;;;;;;14.15;6.22;;;;;;;23.39;34.87;94352.56;5066073;28;20304;-79
2023/03/25 09:45:49;;;;;;;14.77;5.97;;;;;;;23.70;35.60;94344.63;5058069;28;20167;-79
2023/03/25 09:48:20;;;;;;;13.82;6.35;;;;;;;23.93;35.28;94348.09;5065611;28;20240;-79
2023/03/25 09:50:47;;;;;;;26.83;7.65;;;;;;;23.90;34.70;94344.13;5070074;28;20589;-80
2023/03/25 09:53:24;;;;;;;18.33;7.40;;;;;;;23.81;35.06;94339.78;5061129;28;20175;-79
2023/03/25 09:55:50;;;;;;;9.50;4.53;;;;;;;23.70;34.18;94342.72;5057710;28;20179;-80
2023/03/25 09:58:34;;;;;;;10.88;4.97;;;;;;;23.54;34.78;94333.44;5061244;28;20245;-79
2023/03/25 10:01:25;;;;;;;15.02;5.90;;;;;;;23.32;35.05;94328.00;5070664;28;20245;-79
2023/03/25 10:04:06;;;;;;;6.85;4.18;;;;;;;23.13;35.62;94328.16;5062219;28;20187;-78
2023/03/25 10:07:00;;;;;;;9.38;5.13;;;;;;;23.10;34.78;94322.59;5062712;28;20159;-78
2023/03/25 10:09:25;;;;;;;5.95;3.60;;;;;;;23.13;34.37;94330.06;5043407;28;20206;-78
2023/03/25 10:11:56;;;;;;;4.60;3.85;;;;;;;23.15;34.21;94319.81;5056585;28;20924;-78
2023/03/25 10:14:44;;;;;;;5.40;3.13;;;;;;;23.17;34.42;94312.25;5061161;28;20232;-78
2023/03/25 10:17:27;;;;;;;5.30;3.03;;;;;;;23.08;35.35;94282.63;5065159;28;20175;-79
2023/03/25 10:19:55;;;;;;;5.22;2.83;;;;;;;23.26;32.85;94300.44;5063732;28;20229;-79
2023/03/25 10:22:59;;;;;;;5.50;3.67;;;;;;;23.33;33.91;94284.72;5063680;28;20262;-79
2023/03/25 10:25:29;;;;;;;5.20;2.95;;;;;;;23.27;32.64;94269.00;5063281;28;20171;-79
2023/03/25 10:27:56;;;;;;;4.32;2.50;;;;;;;23.22;30.96;94290.63;5067179;28;20202;-78
2023/03/25 10:30:40;;;;;;;6.97;3.30;;;;;;;23.25;33.18;94282.78;5059407;28;20175;-79
2023/03/25 10:33:17;;;;;;;7.30;3.65;;;;;;;23.45;34.08;94273.41;5066166;28;20246;-79
2023/03/25 10:35:47;;;;;;;4.82;3.20;;;;;;;23.70;32.77;94282.78;5060887;28;20175;-78
2023/03/25 10:38:20;;;;;;;4.93;3.22;;;;;;;23.62;32.34;94280.84;5059546;28;20273;-78
2023/03/25 10:40:49;;;;;;;9.25;3.85;;;;;;;23.63;34.17;94275.16;5060445;28;20320;-78
2023/03/25 10:43:29;;;;;;;10.20;3.10;;;;;;;23.82;33.82;94282.22;5061097;28;20225;-78
2023/03/25 10:46:04;;;;;;;4.93;3.85;;;;;;;23.37;32.84;94252.66;5064803;28;20179;-79
2023/03/25 10:48:31;;;;;;;4.50;3.78;;;;;;;23.40;34.75;94270.06;5069262;28;20705;-79
2023/03/25 10:51:02;;;;;;;4.40;3.25;;;;;;;23.47;34.86;94259.69;5052937;28;20560;-79
2023/03/25 10:53:28;;;;;;;9.88;3.30;;;;;;;23.44;36.15;94263.00;5066786;28;20253;-78
2023/03/25 10:56:01;;;;;;;7.05;3.97;;;;;;;23.34;36.68;94239.84;5066970;28;20261;-78
2023/03/25 10:58:28;;;;;;;6.88;3.67;;;;;;;23.47;34.93;94241.66;5069602;28;20170;-79
2023/03/25 11:00:53;;;;;;;12.13;7.18;;;;;;;23.53;34.34;94247.75;5072588;28;20230;-79
2023/03/25 11:03:30;;;;;;;51.65;18.13;;;;;;;23.57;35.32;94240.66;5054887;28;20197;-79
2023/03/25 11:05:56;;;;;;;21.58;5.28;;;;;;;23.57;34.18;94230.72;5060673;28;20181;-79
2023/03/25 11:08:22;;;;;;;6.07;3.15;;;;;;;23.33;32.84;94203.34;5060760;28;20206;-79
2023/03/25 11:10:56;;;;;;;22.75;4.75;;;;;;;23.56;34.86;94228.31;5068513;28;20178;-79
2023/03/25 11:13:29;;;;;;;4.68;3.55;;;;;;;23.54;33.64;94223.25;5068791;28;20179;-78
2023/03/25 11:15:58;;;;;;;4.45;2.88;;;;;;;23.54;34.90;94219.75;5066807;28;20727;-78
2023/03/25 11:18:30;;;;;;;6.07;2.85;;;;;;;23.46;33.94;94215.91;5064250;28;20203;-78
2023/03/25 11:21:01;;;;;;;8.50;2.78;;;;;;;23.39;32.77;94222.81;5061107;28;20236;-78
2023/03/25 11:23:32;;;;;;;6.80;2.60;;;;;;;23.31;32.57;94213.59;5064561;28;20166;-78
2023/03/25 11:26:16;;;;;;;6.80;3.20;;;;;;;23.20;33.59;94223.00;5063530;28;20622;-78
2023/03/25 11:28:48;;;;;;;13.23;2.75;;;;;;;23.12;33.63;94218.34;5062800;28;20263;-78
2023/03/25 11:31:22;;;;;;;4.55;2.85;;;;;;;22.95;32.78;94192.97;5059194;28;20210;-78
2023/03/25 11:34:10;;;;;;;5.57;2.83;;;;;;;23.18;33.05;94204.50;5055981;28;20526;-78
2023/03/25 11:36:54;;;;;;;4.90;2.72;;;;;;;23.28;32.76;94201.56;5060936;28;20241;-78
2023/03/25 11:39:22;;;;;;;4.47;2.60;;;;;;;23.30;32.07;94193.19;5067750;28;20714;-78